createdAt,value
2023-01-10T00:00:31.683Z,0.83
2023-01-10T00:02:58.262Z,0.96
2023-01-10T00:05:24.765Z,0.96
2023-01-10T00:07:51.224Z,0.95
2023-01-10T00:10:17.891Z,0.77
2023-01-10T00:12:44.827Z,0.79
2023-01-10T00:15:11.291Z,0.98
2023-01-10T00:17:37.809Z,0.91
2023-01-10T00:20:04.579Z,0.82
2023-01-10T00:22:31.107Z,0.68
2023-01-10T00:24:57.563Z,0.86
2023-01-10T00:27:24.036Z,0.89
2023-01-10T00:29:51.093Z,0.87
2023-01-10T00:32:18.504Z,0.90
2023-01-10T00:34:45.226Z,0.80
2023-01-10T00:37:11.674Z,0.69
2023-01-10T00:39:38.116Z,0.74
2023-01-10T00:42:04.999Z,0.78
2023-01-10T00:44:31.585Z,0.80
2023-01-10T00:46:58.052Z,0.83
2023-01-10T00:49:24.566Z,0.83
2023-01-10T00:51:51.028Z,0.73
2023-01-10T00:54:17.569Z,0.78
2023-01-10T00:56:44.091Z,0.70
2023-01-10T00:59:10.536Z,0.58
2023-01-10T01:01:37.111Z,0.76
2023-01-10T01:04:03.736Z,0.71
2023-01-10T01:06:30.278Z,0.80
2023-01-10T01:08:56.748Z,0.72
2023-01-10T01:11:23.349Z,0.87
2023-01-10T01:13:49.851Z,0.89
2023-01-10T01:16:17.405Z,0.68
2023-01-10T01:18:44.072Z,0.63
2023-01-10T01:21:10.504Z,0.68
2023-01-10T01:23:37.071Z,0.62
2023-01-10T01:26:03.685Z,0.58
2023-01-10T01:28:30.129Z,0.60
2023-01-10T01:30:56.590Z,0.60
2023-01-10T01:33:23.224Z,0.73
2023-01-10T01:35:49.928Z,0.60
2023-01-10T01:38:17.568Z,0.50
2023-01-10T01:40:44.226Z,0.63
2023-01-10T01:43:27.608Z,0.72
2023-01-10T01:45:55.525Z,0.68
2023-01-10T01:48:43.758Z,0.80
2023-01-10T01:51:18.361Z,0.63
2023-01-10T01:54:00.188Z,0.75
2023-01-10T01:56:46.054Z,0.78
2023-01-10T01:59:30.594Z,0.71
2023-01-10T02:02:05.182Z,0.65
2023-01-10T02:04:41.647Z,0.60
2023-01-10T02:07:10.209Z,0.67
2023-01-10T02:09:48.658Z,0.73
2023-01-10T02:12:15.681Z,0.75
2023-01-10T02:14:45.018Z,0.67
2023-01-10T02:17:11.998Z,0.63
2023-01-10T02:19:56.608Z,0.72
2023-01-10T02:22:54.038Z,0.69
2023-01-10T02:26:04.023Z,0.60
2023-01-10T02:28:44.136Z,0.73
2023-01-10T02:31:19.512Z,0.69
2023-01-10T02:33:57.237Z,0.67
2023-01-10T02:36:35.774Z,0.71
2023-01-10T02:39:10.987Z,0.55
2023-01-10T02:41:51.540Z,0.62
2023-01-10T02:44:25.540Z,0.63
2023-01-10T02:46:52.078Z,0.59
2023-01-10T02:49:18.734Z,0.70
2023-01-10T02:51:45.234Z,0.62
2023-01-10T02:54:22.226Z,0.50
2023-01-10T02:56:51.454Z,0.52
2023-01-10T02:59:30.029Z,0.47
2023-01-10T03:02:07.978Z,0.50
2023-01-10T03:04:52.637Z,0.70
2023-01-10T03:07:28.097Z,0.57
2023-01-10T03:10:19.003Z,0.57
2023-01-10T03:13:00.269Z,0.60
2023-01-10T03:15:33.551Z,0.59
2023-01-10T03:18:05.197Z,0.54
2023-01-10T03:20:37.192Z,0.56
2023-01-10T03:23:06.304Z,0.62
2023-01-10T03:25:37.857Z,0.53
2023-01-10T03:28:16.174Z,0.47
2023-01-10T03:30:54.633Z,0.64
2023-01-10T03:33:27.920Z,0.56
2023-01-10T03:36:08.459Z,0.53
2023-01-10T03:38:52.845Z,0.54
2023-01-10T03:41:47.396Z,0.77
2023-01-10T03:44:27.086Z,0.85
2023-01-10T03:46:58.145Z,1.17
2023-01-10T03:49:27.828Z,1.28
2023-01-10T03:51:57.973Z,1.25
2023-01-10T03:54:24.994Z,1.05
2023-01-10T03:56:52.012Z,1.04
2023-01-10T03:59:23.570Z,0.86
2023-01-10T04:01:50.677Z,0.74
2023-01-10T04:04:17.305Z,0.76
2023-01-10T04:06:44.421Z,0.79
2023-01-10T04:09:11.250Z,0.95
2023-01-10T04:11:37.770Z,0.93
2023-01-10T04:14:04.366Z,0.90
2023-01-10T04:16:31.464Z,1.08
2023-01-10T04:18:57.936Z,1.16
2023-01-10T04:21:24.390Z,1.08
2023-01-10T04:23:50.846Z,0.92
2023-01-10T04:26:17.321Z,0.85
2023-01-10T04:28:43.773Z,0.96
2023-01-10T04:31:10.404Z,0.94
2023-01-10T04:33:36.869Z,1.02
2023-01-10T04:36:03.415Z,0.82
2023-01-10T04:38:29.971Z,1.02
2023-01-10T04:40:57.173Z,0.70
2023-01-10T04:43:26.629Z,0.77
2023-01-10T04:45:53.231Z,0.73
2023-01-10T04:48:19.913Z,0.83
2023-01-10T04:50:53.923Z,0.83
2023-01-10T04:53:20.938Z,1.07
2023-01-10T04:55:47.956Z,1.06
2023-01-10T04:58:14.689Z,1.02
2023-01-10T05:00:41.364Z,1.01
2023-01-10T05:03:07.939Z,1.03
2023-01-10T05:05:34.528Z,1.21
2023-01-10T05:08:01.038Z,1.01
2023-01-10T05:10:27.566Z,0.88
2023-01-10T05:12:54.040Z,0.95
2023-01-10T05:15:20.480Z,0.89
2023-01-10T05:17:46.924Z,0.83
2023-01-10T05:20:13.394Z,0.91
2023-01-10T05:22:40.673Z,0.93
2023-01-10T05:25:07.385Z,0.92
2023-01-10T05:27:33.845Z,0.95
2023-01-10T05:30:00.327Z,0.98
2023-01-10T05:32:29.823Z,0.95
2023-01-10T05:34:56.762Z,1.05
2023-01-10T05:37:23.268Z,0.89
2023-01-10T05:39:49.823Z,0.89
2023-01-10T05:42:16.321Z,1.15
2023-01-10T05:44:42.767Z,1.09
2023-01-10T05:47:09.217Z,1.01
2023-01-10T05:49:35.662Z,1.19
2023-01-10T05:52:02.134Z,1.13
2023-01-10T05:54:28.643Z,1.04
2023-01-10T05:56:55.357Z,1.38
2023-01-10T05:59:28.122Z,1.42
2023-01-10T06:01:55.028Z,1.71
2023-01-10T06:04:21.505Z,2.36
2023-01-10T06:06:47.990Z,2.35
2023-01-10T06:09:14.495Z,2.20
2023-01-10T06:11:40.977Z,1.78
2023-01-10T06:14:07.427Z,1.30
2023-01-10T06:16:33.943Z,1.86
2023-01-10T06:19:00.467Z,1.43
2023-01-10T06:21:27.064Z,1.47
2023-01-10T06:23:53.547Z,1.91
2023-01-10T06:26:19.996Z,1.39
2023-01-10T06:28:46.441Z,1.08
2023-01-10T06:31:13.040Z,1.50
2023-01-10T06:33:39.548Z,1.31
2023-01-10T06:36:06.504Z,1.26
2023-01-10T06:38:32.971Z,1.51
2023-01-10T06:40:59.437Z,1.30
2023-01-10T06:43:26.100Z,1.65
2023-01-10T06:45:52.614Z,1.27
2023-01-10T06:48:19.089Z,1.07
2023-01-10T06:50:45.540Z,1.02
2023-01-10T06:53:12.022Z,0.92
2023-01-10T06:55:38.460Z,0.98
2023-01-10T06:58:04.996Z,0.98
2023-01-10T07:00:31.903Z,1.04
2023-01-10T07:02:59.361Z,0.85
2023-01-10T07:05:25.844Z,0.74
2023-01-10T07:07:52.365Z,0.85
2023-01-10T07:10:18.912Z,1.10
2023-01-10T07:12:45.405Z,0.82
2023-01-10T07:15:11.859Z,1.37
2023-01-10T07:17:38.341Z,1.32
2023-01-10T07:20:05.201Z,1.18
2023-01-10T07:22:31.650Z,1.23
2023-01-10T07:24:58.105Z,0.88
2023-01-10T07:27:24.571Z,0.99
2023-01-10T07:29:51.039Z,1.32
2023-01-10T07:32:17.592Z,1.32
2023-01-10T07:34:44.057Z,1.13
2023-01-10T07:37:10.504Z,1.09
2023-01-10T07:39:36.974Z,1.17
2023-01-10T07:42:03.539Z,2.47
2023-01-10T07:44:30.049Z,1.61
2023-01-10T07:46:56.594Z,1.32
2023-01-10T07:49:23.080Z,1.29
2023-01-10T07:51:49.540Z,1.17
2023-01-10T07:54:16.024Z,1.27
2023-01-10T07:56:42.516Z,1.27
2023-01-10T07:59:09.140Z,1.22
2023-01-10T08:01:35.632Z,1.29
2023-01-10T08:04:02.063Z,1.38
2023-01-10T08:06:28.543Z,1.15
2023-01-10T08:08:54.991Z,1.28
2023-01-10T08:11:21.454Z,1.32
2023-01-10T08:13:48.074Z,1.22
2023-01-10T08:16:14.954Z,1.42
2023-01-10T08:18:41.469Z,1.42
2023-01-10T08:21:07.980Z,1.40
2023-01-10T08:23:34.609Z,1.40
2023-01-10T08:26:01.619Z,1.41
2023-01-10T08:28:29.032Z,1.54
2023-01-10T08:30:55.604Z,1.48
2023-01-10T08:33:23.790Z,1.82
2023-01-10T08:35:51.143Z,1.58
2023-01-10T08:38:17.610Z,1.46
2023-01-10T08:40:44.083Z,2.39
2023-01-10T08:43:12.529Z,2.34
2023-01-10T08:45:39.755Z,1.41
2023-01-10T08:48:07.210Z,1.51
2023-01-10T08:50:33.692Z,1.99
2023-01-10T08:53:01.173Z,1.80
2023-01-10T08:55:28.995Z,1.46
2023-01-10T08:57:55.456Z,1.64
2023-01-10T09:00:22.532Z,1.71
2023-01-10T09:02:49.071Z,1.39
2023-01-10T09:05:27.033Z,2.48
2023-01-10T09:07:59.733Z,2.89
2023-01-10T09:10:26.846Z,1.97
2023-01-10T09:12:53.356Z,2.17
2023-01-10T09:15:19.980Z,1.96
2023-01-10T09:17:46.439Z,2.34
2023-01-10T09:20:12.908Z,1.91
2023-01-10T09:22:39.410Z,1.54
2023-01-10T09:25:09.081Z,1.43
2023-01-10T09:27:35.563Z,1.56
2023-01-10T09:30:02.050Z,1.53
2023-01-10T09:32:28.655Z,1.52
2023-01-10T09:34:55.125Z,1.60
2023-01-10T09:37:21.571Z,1.61
2023-01-10T09:39:48.040Z,1.85
2023-01-10T09:42:36.386Z,1.58
2023-01-10T09:45:37.924Z,1.62
2023-01-10T09:48:06.925Z,1.89
2023-01-10T09:51:08.457Z,1.75
2023-01-10T09:53:41.479Z,1.61
2023-01-10T09:56:09.307Z,1.66
2023-01-10T09:58:38.222Z,1.88
2023-01-10T10:01:10.283Z,1.78
2023-01-10T10:03:41.338Z,2.02
2023-01-10T10:06:12.917Z,2.02
2023-01-10T10:08:43.001Z,3.13
2023-01-10T10:11:28.368Z,2.44
2023-01-10T10:14:15.215Z,2.12
2023-01-10T10:16:50.712Z,2.18
2023-01-10T10:19:45.062Z,2.05
2023-01-10T10:22:34.401Z,1.73
2023-01-10T10:25:09.916Z,1.74
2023-01-10T10:28:08.280Z,2.14
2023-01-10T10:30:38.430Z,1.89
2023-01-10T10:33:20.442Z,1.70
2023-01-10T10:36:03.427Z,1.86
2023-01-10T10:38:38.993Z,1.74
2023-01-10T10:41:22.166Z,1.99
2023-01-10T10:43:49.169Z,1.90
2023-01-10T10:46:17.333Z,1.85
2023-01-10T10:48:50.974Z,1.64
2023-01-10T10:51:33.984Z,1.82
2023-01-10T10:54:00.626Z,1.89
2023-01-10T10:56:27.505Z,1.83
2023-01-10T10:58:59.605Z,1.71
2023-01-10T11:01:27.083Z,1.69
2023-01-10T11:04:05.991Z,1.78
2023-01-10T11:06:34.575Z,2.16
2023-01-10T11:09:04.289Z,2.10
2023-01-10T11:11:36.096Z,2.13
2023-01-10T11:14:06.601Z,2.02
2023-01-10T11:16:38.674Z,1.90
2023-01-10T11:19:17.483Z,2.11
2023-01-10T11:21:55.501Z,1.78
2023-01-10T11:24:35.837Z,1.98
2023-01-10T11:27:15.242Z,2.07
2023-01-10T11:29:51.421Z,2.02
2023-01-10T11:32:22.568Z,1.95
2023-01-10T11:34:56.656Z,1.99
2023-01-10T11:37:26.317Z,2.18
2023-01-10T11:40:17.284Z,2.11
2023-01-10T11:42:44.645Z,2.19
2023-01-10T11:45:17.103Z,2.15
2023-01-10T11:48:07.727Z,2.06
2023-01-10T11:50:50.953Z,2.23
2023-01-10T11:53:39.026Z,2.11
2023-01-10T11:56:07.295Z,2.17
2023-01-10T11:58:36.580Z,1.84
2023-01-10T12:01:03.142Z,1.71
2023-01-10T12:03:31.743Z,1.98
2023-01-10T12:06:17.975Z,2.10
2023-01-10T12:08:44.966Z,2.39
2023-01-10T12:11:17.545Z,2.99
2023-01-10T12:13:52.971Z,2.13
2023-01-10T12:16:23.812Z,2.10
2023-01-10T12:18:53.028Z,1.73
2023-01-10T12:21:26.506Z,2.57
2023-01-10T12:23:57.293Z,2.06
2023-01-10T12:26:29.490Z,1.62
2023-01-10T12:28:59.633Z,1.78
2023-01-10T12:31:30.078Z,2.55
2023-01-10T12:34:07.419Z,1.82
2023-01-10T12:36:48.866Z,1.61
2023-01-10T12:39:32.915Z,2.19
2023-01-10T12:42:09.525Z,2.34
2023-01-10T12:44:49.595Z,2.40
2023-01-10T12:47:25.043Z,2.19
2023-01-10T12:50:11.221Z,1.93
2023-01-10T12:53:02.730Z,2.03
2023-01-10T12:55:38.463Z,2.08
2023-01-10T12:58:05.599Z,1.74
2023-01-10T13:00:48.754Z,4.39
2023-01-10T13:03:20.976Z,2.64
2023-01-10T13:05:49.261Z,1.86
2023-01-10T13:08:20.123Z,1.64
2023-01-10T13:10:51.215Z,1.80
2023-01-10T13:13:38.516Z,2.07
2023-01-10T13:16:23.261Z,2.32
2023-01-10T13:19:16.085Z,1.80
2023-01-10T13:21:43.042Z,2.19
2023-01-10T13:24:15.895Z,1.69
2023-01-10T13:26:56.255Z,1.46
2023-01-10T13:29:42.210Z,1.48
2023-01-10T13:32:29.604Z,1.82
2023-01-10T13:35:13.711Z,1.79
2023-01-10T13:37:44.525Z,1.73
2023-01-10T13:40:25.932Z,1.38
2023-01-10T13:43:30.786Z,1.67
2023-01-10T13:46:15.137Z,1.82
2023-01-10T13:49:02.536Z,1.55
2023-01-10T13:51:31.709Z,1.77
2023-01-10T13:54:03.246Z,1.90
2023-01-10T13:56:35.650Z,1.69
2023-01-10T13:59:04.618Z,1.59
2023-01-10T14:01:38.596Z,1.94
2023-01-10T14:04:06.533Z,1.84
2023-01-10T14:06:38.059Z,2.07
2023-01-10T14:09:06.498Z,2.03
2023-01-10T14:11:44.761Z,1.75
2023-01-10T14:14:41.082Z,1.84
2023-01-10T14:17:12.541Z,1.80
2023-01-10T14:19:41.038Z,1.68
2023-01-10T14:22:25.198Z,2.14
2023-01-10T14:24:53.620Z,1.70
2023-01-10T14:27:21.805Z,2.04
2023-01-10T14:30:00.873Z,3.83
2023-01-10T14:32:35.982Z,3.75
2023-01-10T14:35:05.941Z,2.47
2023-01-10T14:37:54.987Z,1.97
2023-01-10T14:40:43.929Z,2.39
2023-01-10T14:43:17.828Z,1.75
2023-01-10T14:46:15.647Z,1.92
2023-01-10T14:48:51.219Z,1.85
2023-01-10T14:51:24.574Z,2.29
2023-01-10T14:54:00.236Z,1.79
2023-01-10T14:56:38.866Z,2.83
2023-01-10T14:59:24.072Z,2.39
2023-01-10T15:01:54.485Z,1.94
2023-01-10T15:04:23.718Z,1.41
2023-01-10T15:06:53.320Z,1.64
2023-01-10T15:09:19.955Z,1.79
2023-01-10T15:11:48.767Z,1.92
2023-01-10T15:14:18.783Z,1.59
2023-01-10T15:16:48.131Z,1.72
2023-01-10T15:19:21.990Z,2.28
2023-01-10T15:21:49.728Z,1.98
2023-01-10T15:24:33.134Z,1.62
2023-01-10T15:27:12.209Z,1.83
2023-01-10T15:29:43.681Z,2.01
2023-01-10T15:32:18.291Z,2.01
2023-01-10T15:34:51.117Z,2.38
2023-01-10T15:37:23.703Z,2.35
2023-01-10T15:39:50.210Z,2.06
2023-01-10T15:42:21.045Z,1.58
2023-01-10T15:44:49.808Z,1.77
2023-01-10T15:47:36.678Z,1.50
2023-01-10T15:50:25.552Z,1.89
2023-01-10T15:53:01.472Z,1.64
2023-01-10T15:55:41.583Z,2.08
2023-01-10T15:58:29.637Z,2.02
2023-01-10T16:00:59.742Z,2.46
2023-01-10T16:03:44.035Z,2.23
2023-01-10T16:06:31.290Z,2.03
2023-01-10T16:09:01.155Z,2.16
2023-01-10T16:11:39.295Z,2.27
2023-01-10T16:14:05.802Z,2.38
2023-01-10T16:16:32.577Z,1.99
2023-01-10T16:19:00.258Z,1.84
2023-01-10T16:21:35.493Z,1.82
2023-01-10T16:24:03.704Z,1.57
2023-01-10T16:26:30.499Z,1.69
2023-01-10T16:28:57.063Z,1.54
2023-01-10T16:31:23.644Z,1.60
2023-01-10T16:33:50.133Z,1.91
2023-01-10T16:36:18.619Z,3.27
2023-01-10T16:38:45.324Z,2.84
2023-01-10T16:41:14.045Z,2.18
2023-01-10T16:43:40.502Z,2.83
2023-01-10T16:46:07.140Z,2.26
2023-01-10T16:48:33.643Z,1.98
2023-01-10T16:51:23.377Z,1.85
2023-01-10T16:53:50.923Z,1.91
2023-01-10T16:56:20.988Z,2.78
2023-01-10T16:58:49.002Z,2.21
2023-01-10T17:01:18.942Z,2.11
2023-01-10T17:03:47.180Z,1.89
2023-01-10T17:06:14.928Z,1.95
2023-01-10T17:08:42.691Z,1.89
2023-01-10T17:11:22.580Z,1.88
2023-01-10T17:13:49.354Z,1.99
2023-01-10T17:16:18.567Z,1.93
2023-01-10T17:18:46.990Z,1.93
2023-01-10T17:21:16.947Z,2.40
2023-01-10T17:23:44.301Z,2.75
2023-01-10T17:26:13.257Z,2.80
2023-01-10T17:28:39.991Z,2.41
2023-01-10T17:31:07.693Z,2.75
2023-01-10T17:33:34.749Z,2.63
2023-01-10T17:36:01.271Z,2.74
2023-01-10T17:38:29.949Z,2.83
2023-01-10T17:40:59.166Z,2.54
2023-01-10T17:43:25.608Z,2.42
2023-01-10T17:45:52.247Z,2.58
2023-01-10T17:48:19.454Z,2.45
2023-01-10T17:50:48.535Z,2.62
2023-01-10T17:53:16.464Z,2.32
2023-01-10T17:55:46.938Z,2.10
2023-01-10T17:58:14.379Z,2.53
2023-01-10T18:00:40.887Z,2.32
2023-01-10T18:03:08.071Z,2.06
2023-01-10T18:05:34.964Z,2.11
2023-01-10T18:08:04.841Z,2.20
2023-01-10T18:10:32.560Z,2.62
2023-01-10T18:12:59.060Z,2.54
2023-01-10T18:15:26.334Z,2.14
2023-01-10T18:17:52.926Z,2.28
2023-01-10T18:20:19.660Z,2.24
2023-01-10T18:22:46.126Z,2.15
2023-01-10T18:25:12.676Z,1.95
2023-01-10T18:27:39.162Z,2.25
2023-01-10T18:30:06.227Z,2.52
2023-01-10T18:32:32.864Z,2.35
2023-01-10T18:34:59.323Z,2.30
2023-01-10T18:37:25.980Z,2.38
2023-01-10T18:39:52.453Z,2.51
2023-01-10T18:42:18.937Z,2.73
2023-01-10T18:44:45.445Z,2.42
2023-01-10T18:47:11.917Z,2.36
2023-01-10T18:49:38.412Z,2.22
2023-01-10T18:52:04.894Z,2.56
2023-01-10T18:54:31.392Z,2.23
2023-01-10T18:56:57.854Z,2.54
2023-01-10T18:59:24.350Z,2.80
2023-01-10T19:01:50.979Z,2.57
2023-01-10T19:04:17.510Z,2.39
2023-01-10T19:06:44.188Z,2.23
2023-01-10T19:09:10.919Z,2.43
2023-01-10T19:11:37.371Z,2.67
2023-01-10T19:14:04.166Z,2.76
2023-01-10T19:16:31.433Z,3.03
2023-01-10T19:19:00.648Z,2.62
2023-01-10T19:21:28.113Z,2.32
2023-01-10T19:24:00.247Z,2.04
2023-01-10T19:26:26.942Z,2.19
2023-01-10T19:28:53.739Z,2.20
2023-01-10T19:31:28.761Z,2.21
2023-01-10T19:33:59.432Z,2.39
2023-01-10T19:36:26.954Z,2.58
2023-01-10T19:38:58.453Z,2.52
2023-01-10T19:41:26.881Z,2.33
2023-01-10T19:44:02.270Z,2.39
2023-01-10T19:46:29.627Z,2.38
2023-01-10T19:48:56.293Z,2.16
2023-01-10T19:51:22.970Z,2.42
2023-01-10T19:53:49.514Z,2.60
2023-01-10T19:56:18.487Z,2.88
2023-01-10T19:58:45.663Z,2.67
2023-01-10T20:01:14.654Z,2.51
2023-01-10T20:03:42.007Z,2.54
2023-01-10T20:06:13.585Z,2.54
2023-01-10T20:08:41.318Z,2.43
2023-01-10T20:11:07.891Z,2.61
2023-01-10T20:13:37.277Z,2.74
2023-01-10T20:16:05.235Z,2.45
2023-01-10T20:18:32.147Z,2.59
2023-01-10T20:20:59.128Z,2.46
2023-01-10T20:23:25.638Z,2.40
2023-01-10T20:26:00.793Z,2.30
2023-01-10T20:28:28.161Z,2.18
2023-01-10T20:30:58.595Z,2.34
2023-01-10T20:33:25.567Z,2.49
2023-01-10T20:36:00.772Z,2.45
2023-01-10T20:38:28.622Z,2.43
2023-01-10T20:40:59.107Z,2.69
2023-01-10T20:43:26.622Z,2.61
2023-01-10T20:45:53.249Z,2.34
2023-01-10T20:48:20.079Z,2.45
2023-01-10T20:50:47.504Z,2.43
2023-01-10T20:53:15.093Z,2.18
2023-01-10T20:55:41.659Z,2.32
2023-01-10T20:58:09.650Z,2.47
2023-01-10T21:00:36.132Z,2.45
2023-01-10T21:03:02.918Z,2.91
2023-01-10T21:05:29.439Z,2.77
2023-01-10T21:07:55.988Z,2.46
2023-01-10T21:10:22.569Z,2.05
2023-01-10T21:12:49.174Z,2.35
2023-01-10T21:15:15.795Z,2.47
2023-01-10T21:17:42.263Z,2.51
2023-01-10T21:20:10.053Z,2.18
2023-01-10T21:22:36.604Z,2.09
2023-01-10T21:25:03.502Z,1.96
2023-01-10T21:27:30.004Z,2.16
2023-01-10T21:29:59.716Z,2.02
2023-01-10T21:32:26.565Z,2.55
2023-01-10T21:34:54.083Z,2.34
2023-01-10T21:37:20.537Z,2.74
2023-01-10T21:39:46.997Z,2.68
2023-01-10T21:42:13.461Z,2.66
2023-01-10T21:44:39.920Z,2.92
2023-01-10T21:47:06.642Z,2.78
2023-01-10T21:49:33.173Z,3.10
2023-01-10T21:51:59.663Z,2.63
2023-01-10T21:54:26.191Z,2.66
2023-01-10T21:56:52.657Z,2.73
2023-01-10T21:59:19.123Z,3.49
2023-01-10T22:01:46.858Z,3.40
2023-01-10T22:04:16.355Z,3.24
2023-01-10T22:06:43.769Z,2.99
2023-01-10T22:09:11.168Z,3.81
2023-01-10T22:11:37.665Z,5.71
2023-01-10T22:14:04.258Z,6.97
2023-01-10T22:16:30.897Z,4.15
2023-01-10T22:18:58.215Z,3.99
2023-01-10T22:21:24.691Z,4.06
2023-01-10T22:23:51.160Z,3.45
2023-01-10T22:26:17.619Z,3.08
2023-01-10T22:28:44.117Z,2.99
2023-01-10T22:31:11.111Z,2.85
2023-01-10T22:33:38.159Z,2.54
2023-01-10T22:36:05.668Z,2.69
2023-01-10T22:38:32.145Z,2.60
2023-01-10T22:41:06.511Z,2.71
2023-01-10T22:43:33.666Z,2.80
2023-01-10T22:46:00.228Z,2.89
2023-01-10T22:48:26.744Z,2.64
2023-01-10T22:50:53.211Z,2.64
2023-01-10T22:53:19.803Z,3.17
2023-01-10T22:55:46.668Z,3.35
2023-01-10T22:58:13.143Z,3.09
2023-01-10T23:00:39.590Z,3.06
2023-01-10T23:03:06.155Z,2.93
2023-01-10T23:05:32.622Z,3.09
2023-01-10T23:07:59.094Z,3.03
2023-01-10T23:10:30.712Z,2.66
2023-01-10T23:12:58.006Z,2.74
2023-01-10T23:15:24.620Z,2.61
2023-01-10T23:17:51.122Z,2.67
2023-01-10T23:20:17.656Z,2.58
2023-01-10T23:22:44.211Z,2.54
2023-01-10T23:25:10.832Z,2.76
2023-01-10T23:27:37.339Z,2.77
2023-01-10T23:30:09.010Z,2.88
2023-01-10T23:32:35.522Z,2.85
2023-01-10T23:35:02.326Z,2.58
2023-01-10T23:37:28.807Z,2.44
2023-01-10T23:39:55.284Z,2.25
2023-01-10T23:42:21.805Z,2.43
2023-01-10T23:44:48.277Z,2.40
2023-01-10T23:47:14.821Z,2.23
2023-01-10T23:49:41.297Z,2.27
2023-01-10T23:52:07.788Z,2.27
2023-01-10T23:54:34.299Z,2.37
2023-01-10T23:57:00.746Z,2.37
2023-01-10T23:59:27.244Z,2.35
